sensor_id;sensor_type;location;lat;lon;timestamp;P1;P2;P0
47081;PMS5003;33066;49.296;14.470;2023-02-11T00:00:59;62;57;
47081;PMS5003;33066;49.296;14.470;2023-02-11T00:03:24;72;55;
47081;PMS5003;33066;49.296;14.470;2023-02-11T00:05:57;65;50;
47081;PMS5003;33066;49.296;14.470;2023-02-11T00:08:15;77;64;
47081;PMS5003;33066;49.296;14.470;2023-02-11T00:10:40;60;51;
47081;PMS5003;33066;49.296;14.470;2023-02-11T00:13:06;72;59;
47081;PMS5003;33066;49.296;14.470;2023-02-11T00:15:31;57;46;
47081;PMS5003;33066;49.296;14.470;2023-02-11T00:17:57;67;53;
47081;PMS5003;33066;49.296;14.470;2023-02-11T00:20:22;40;36;
47081;PMS5003;33066;49.296;14.470;2023-02-11T00:22:48;54;44;
47081;PMS5003;33066;49.296;14.470;2023-02-11T00:25:13;81;56;
47081;PMS5003;33066;49.296;14.470;2023-02-11T00:27:38;57;48;
47081;PMS5003;33066;49.296;14.470;2023-02-11T00:30:04;44;40;
47081;PMS5003;33066;49.296;14.470;2023-02-11T00:32:29;53;32;
47081;PMS5003;33066;49.296;14.470;2023-02-11T00:34:55;54;43;
47081;PMS5003;33066;49.296;14.470;2023-02-11T00:37:21;49;44;
47081;PMS5003;33066;49.296;14.470;2023-02-11T00:39:46;49;40;
47081;PMS5003;33066;49.296;14.470;2023-02-11T00:42:12;60;44;
47081;PMS5003;33066;49.296;14.470;2023-02-11T00:44:37;60;47;
47081;PMS5003;33066;49.296;14.470;2023-02-11T00:47:02;173;136;
47081;PMS5003;33066;49.296;14.470;2023-02-11T00:49:28;117;94;
47081;PMS5003;33066;49.296;14.470;2023-02-11T00:51:54;447;316;
47081;PMS5003;33066;49.296;14.470;2023-02-11T00:54:20;131;104;
47081;PMS5003;33066;49.296;14.470;2023-02-11T00:56:45;93;64;
47081;PMS5003;33066;49.296;14.470;2023-02-11T00:59:10;95;77;
47081;PMS5003;33066;49.296;14.470;2023-02-11T01:01:35;104;75;
47081;PMS5003;33066;49.296;14.470;2023-02-11T01:04:01;86;65;
47081;PMS5003;33066;49.296;14.470;2023-02-11T01:06:26;66;55;
47081;PMS5003;33066;49.296;14.470;2023-02-11T01:08:51;71;59;
47081;PMS5003;33066;49.296;14.470;2023-02-11T01:11:18;85;68;
47081;PMS5003;33066;49.296;14.470;2023-02-11T01:13:42;85;70;
47081;PMS5003;33066;49.296;14.470;2023-02-11T01:16:08;71;64;
47081;PMS5003;33066;49.296;14.470;2023-02-11T01:18:32;64;52;
47081;PMS5003;33066;49.296;14.470;2023-02-11T01:20:58;81;60;
47081;PMS5003;33066;49.296;14.470;2023-02-11T01:23:23;89;64;
47081;PMS5003;33066;49.296;14.470;2023-02-11T01:25:48;73;61;
47081;PMS5003;33066;49.296;14.470;2023-02-11T01:28:15;72;56;
47081;PMS5003;33066;49.296;14.470;2023-02-11T01:30:39;57;52;
47081;PMS5003;33066;49.296;14.470;2023-02-11T01:33:04;48;43;
47081;PMS5003;33066;49.296;14.470;2023-02-11T01:35:30;65;55;
47081;PMS5003;33066;49.296;14.470;2023-02-11T01:37:55;54;46;
47081;PMS5003;33066;49.296;14.470;2023-02-11T01:40:21;55;49;
47081;PMS5003;33066;49.296;14.470;2023-02-11T01:42:47;67;56;
47081;PMS5003;33066;49.296;14.470;2023-02-11T01:47:37;62;49;
47081;PMS5003;33066;49.296;14.470;2023-02-11T01:50:02;62;43;
47081;PMS5003;33066;49.296;14.470;2023-02-11T01:52:28;53;43;
47081;PMS5003;33066;49.296;14.470;2023-02-11T01:54:54;62;44;
47081;PMS5003;33066;49.296;14.470;2023-02-11T01:57:19;63;52;
47081;PMS5003;33066;49.296;14.470;2023-02-11T01:59:44;62;47;
47081;PMS5003;33066;49.296;14.470;2023-02-11T02:02:10;62;44;
47081;PMS5003;33066;49.296;14.470;2023-02-11T02:04:41;57;43;
47081;PMS5003;33066;49.296;14.470;2023-02-11T02:07:01;57;40;
47081;PMS5003;33066;49.296;14.470;2023-02-11T02:09:26;43;38;
47081;PMS5003;33066;49.296;14.470;2023-02-11T02:11:51;50;42;
47081;PMS5003;33066;49.296;14.470;2023-02-11T02:14:16;67;49;
47081;PMS5003;33066;49.296;14.470;2023-02-11T02:16:41;56;43;
47081;PMS5003;33066;49.296;14.470;2023-02-11T02:19:13;51;47;
47081;PMS5003;33066;49.296;14.470;2023-02-11T02:24:02;59;49;
47081;PMS5003;33066;49.296;14.470;2023-02-11T02:26:27;52;44;
47081;PMS5003;33066;49.296;14.470;2023-02-11T02:33:41;54;44;
47081;PMS5003;33066;49.296;14.470;2023-02-11T02:36:08;56;46;
47081;PMS5003;33066;49.296;14.470;2023-02-11T02:38:32;50;42;
47081;PMS5003;33066;49.296;14.470;2023-02-11T02:40:58;57;49;
47081;PMS5003;33066;49.296;14.470;2023-02-11T02:43:22;68;50;
47081;PMS5003;33066;49.296;14.470;2023-02-11T02:45:47;62;54;
47081;PMS5003;33066;49.296;14.470;2023-02-11T02:48:23;65;57;
47081;PMS5003;33066;49.296;14.470;2023-02-11T02:50:38;73;56;
47081;PMS5003;33066;49.296;14.470;2023-02-11T02:53:08;77;56;
47081;PMS5003;33066;49.296;14.470;2023-02-11T02:55:33;66;54;
47081;PMS5003;33066;49.296;14.470;2023-02-11T02:57:59;64;53;
47081;PMS5003;33066;49.296;14.470;2023-02-11T03:00:22;68;54;
47081;PMS5003;33066;49.296;14.470;2023-02-11T03:02:49;55;48;
47081;PMS5003;33066;49.296;14.470;2023-02-11T03:05:11;54;48;
47081;PMS5003;33066;49.296;14.470;2023-02-11T03:07:36;60;51;
47081;PMS5003;33066;49.296;14.470;2023-02-11T03:10:02;64;49;
47081;PMS5003;33066;49.296;14.470;2023-02-11T03:12:27;65;51;
47081;PMS5003;33066;49.296;14.470;2023-02-11T03:14:53;46;37;
47081;PMS5003;33066;49.296;14.470;2023-02-11T03:17:18;48;40;
47081;PMS5003;33066;49.296;14.470;2023-02-11T03:19:44;58;48;
47081;PMS5003;33066;49.296;14.470;2023-02-11T03:22:10;55;48;
47081;PMS5003;33066;49.296;14.470;2023-02-11T03:24:35;70;51;
47081;PMS5003;33066;49.296;14.470;2023-02-11T03:27:01;59;50;
47081;PMS5003;33066;49.296;14.470;2023-02-11T03:29:30;57;50;
47081;PMS5003;33066;49.296;14.470;2023-02-11T03:31:53;46;39;
47081;PMS5003;33066;49.296;14.470;2023-02-11T03:34:18;72;57;
47081;PMS5003;33066;49.296;14.470;2023-02-11T03:36:43;54;45;
47081;PMS5003;33066;49.296;14.470;2023-02-11T03:39:08;42;37;
47081;PMS5003;33066;49.296;14.470;2023-02-11T03:41:34;49;40;
47081;PMS5003;33066;49.296;14.470;2023-02-11T03:43:59;44;39;
47081;PMS5003;33066;49.296;14.470;2023-02-11T03:46:28;56;45;
47081;PMS5003;33066;49.296;14.470;2023-02-11T03:48:51;47;37;
47081;PMS5003;33066;49.296;14.470;2023-02-11T03:51:16;41;39;
47081;PMS5003;33066;49.296;14.470;2023-02-11T03:53:42;53;48;
47081;PMS5003;33066;49.296;14.470;2023-02-11T03:56:07;69;53;
47081;PMS5003;33066;49.296;14.470;2023-02-11T03:58:31;67;56;
47081;PMS5003;33066;49.296;14.470;2023-02-11T04:00:57;60;50;
47081;PMS5003;33066;49.296;14.470;2023-02-11T04:03:22;69;56;
47081;PMS5003;33066;49.296;14.470;2023-02-11T04:05:48;72;55;
47081;PMS5003;33066;49.296;14.470;2023-02-11T04:08:13;72;53;
47081;PMS5003;33066;49.296;14.470;2023-02-11T04:13:00;62;47;
47081;PMS5003;33066;49.296;14.470;2023-02-11T04:15:25;43;40;
47081;PMS5003;33066;49.296;14.470;2023-02-11T04:17:51;44;39;
47081;PMS5003;33066;49.296;14.470;2023-02-11T04:20:16;95;69;
47081;PMS5003;33066;49.296;14.470;2023-02-11T04:22:42;44;37;
47081;PMS5003;33066;49.296;14.470;2023-02-11T04:25:08;34;31;
47081;PMS5003;33066;49.296;14.470;2023-02-11T04:27:32;36;35;
47081;PMS5003;33066;49.296;14.470;2023-02-11T04:29:58;49;44;
47081;PMS5003;33066;49.296;14.470;2023-02-11T04:32:24;53;29;
47081;PMS5003;33066;49.296;14.470;2023-02-11T04:34:49;59;45;
47081;PMS5003;33066;49.296;14.470;2023-02-11T04:37:14;42;34;
47081;PMS5003;33066;49.296;14.470;2023-02-11T04:39:40;50;40;
47081;PMS5003;33066;49.296;14.470;2023-02-11T04:42:06;46;36;
47081;PMS5003;33066;49.296;14.470;2023-02-11T04:44:31;46;37;
47081;PMS5003;33066;49.296;14.470;2023-02-11T04:46:57;34;32;
47081;PMS5003;33066;49.296;14.470;2023-02-11T04:49:22;55;47;
47081;PMS5003;33066;49.296;14.470;2023-02-11T04:51:48;54;44;
47081;PMS5003;33066;49.296;14.470;2023-02-11T04:54:13;54;41;
47081;PMS5003;33066;49.296;14.470;2023-02-11T04:56:38;49;36;
47081;PMS5003;33066;49.296;14.470;2023-02-11T04:59:04;57;36;
47081;PMS5003;33066;49.296;14.470;2023-02-11T05:01:29;56;39;
47081;PMS5003;33066;49.296;14.470;2023-02-11T05:03:55;51;44;
47081;PMS5003;33066;49.296;14.470;2023-02-11T05:06:20;56;45;
47081;PMS5003;33066;49.296;14.470;2023-02-11T05:08:45;51;45;
47081;PMS5003;33066;49.296;14.470;2023-02-11T05:11:13;51;38;
47081;PMS5003;33066;49.296;14.470;2023-02-11T05:13:37;49;45;
47081;PMS5003;33066;49.296;14.470;2023-02-11T05:16:03;53;45;
47081;PMS5003;33066;49.296;14.470;2023-02-11T05:18:29;42;40;
47081;PMS5003;33066;49.296;14.470;2023-02-11T05:20:54;47;36;
47081;PMS5003;33066;49.296;14.470;2023-02-11T05:23:20;47;36;
47081;PMS5003;33066;49.296;14.470;2023-02-11T05:25:45;51;45;
47081;PMS5003;33066;49.296;14.470;2023-02-11T05:28:11;42;36;
47081;PMS5003;33066;49.296;14.470;2023-02-11T05:30:36;38;31;
47081;PMS5003;33066;49.296;14.470;2023-02-11T05:33:01;42;34;
47081;PMS5003;33066;49.296;14.470;2023-02-11T05:35:27;38;36;
47081;PMS5003;33066;49.296;14.470;2023-02-11T05:37:52;50;36;
47081;PMS5003;33066;49.296;14.470;2023-02-11T05:40:18;45;36;
47081;PMS5003;33066;49.296;14.470;2023-02-11T05:42:43;54;34;
47081;PMS5003;33066;49.296;14.470;2023-02-11T05:45:09;36;36;
47081;PMS5003;33066;49.296;14.470;2023-02-11T05:47:35;49;44;
47081;PMS5003;33066;49.296;14.470;2023-02-11T05:50:01;55;33;
47081;PMS5003;33066;49.296;14.470;2023-02-11T05:52:26;49;43;
47081;PMS5003;33066;49.296;14.470;2023-02-11T05:54:52;37;32;
47081;PMS5003;33066;49.296;14.470;2023-02-11T05:57:17;58;41;
47081;PMS5003;33066;49.296;14.470;2023-02-11T05:59:42;41;40;
47081;PMS5003;33066;49.296;14.470;2023-02-11T06:02:08;45;35;
47081;PMS5003;33066;49.296;14.470;2023-02-11T06:04:34;57;50;
47081;PMS5003;33066;49.296;14.470;2023-02-11T06:06:59;48;47;
47081;PMS5003;33066;49.296;14.470;2023-02-11T06:09:25;51;41;
47081;PMS5003;33066;49.296;14.470;2023-02-11T06:11:50;60;51;
47081;PMS5003;33066;49.296;14.470;2023-02-11T06:14:16;56;46;
47081;PMS5003;33066;49.296;14.470;2023-02-11T06:16:41;67;59;
47081;PMS5003;33066;49.296;14.470;2023-02-11T06:19:06;52;41;
47081;PMS5003;33066;49.296;14.470;2023-02-11T06:21:32;41;37;
47081;PMS5003;33066;49.296;14.470;2023-02-11T06:23:58;154;110;
47081;PMS5003;33066;49.296;14.470;2023-02-11T06:26:24;51;45;
47081;PMS5003;33066;49.296;14.470;2023-02-11T06:28:49;36;33;
47081;PMS5003;33066;49.296;14.470;2023-02-11T06:31:15;47;43;
47081;PMS5003;33066;49.296;14.470;2023-02-11T06:33:41;86;67;
47081;PMS5003;33066;49.296;14.470;2023-02-11T06:36:12;130;113;
47081;PMS5003;33066;49.296;14.470;2023-02-11T06:38:31;77;65;
47081;PMS5003;33066;49.296;14.470;2023-02-11T06:40:57;85;65;
47081;PMS5003;33066;49.296;14.470;2023-02-11T06:43:22;87;69;
47081;PMS5003;33066;49.296;14.470;2023-02-11T06:45:51;66;57;
47081;PMS5003;33066;49.296;14.470;2023-02-11T06:48:14;63;50;
47081;PMS5003;33066;49.296;14.470;2023-02-11T06:50:40;61;45;
47081;PMS5003;33066;49.296;14.470;2023-02-11T06:53:05;62;56;
47081;PMS5003;33066;49.296;14.470;2023-02-11T06:55:30;93;77;
47081;PMS5003;33066;49.296;14.470;2023-02-11T06:57:56;304;228;
47081;PMS5003;33066;49.296;14.470;2023-02-11T07:00:21;624;437;
47081;PMS5003;33066;49.296;14.470;2023-02-11T07:02:47;857;630;
47081;PMS5003;33066;49.296;14.470;2023-02-11T07:05:12;868;615;
47081;PMS5003;33066;49.296;14.470;2023-02-11T07:07:38;359;298;
47081;PMS5003;33066;49.296;14.470;2023-02-11T07:10:03;107;86;
47081;PMS5003;33066;49.296;14.470;2023-02-11T07:12:29;80;61;
47081;PMS5003;33066;49.296;14.470;2023-02-11T07:14:54;90;73;
47081;PMS5003;33066;49.296;14.470;2023-02-11T07:17:19;67;54;
47081;PMS5003;33066;49.296;14.470;2023-02-11T07:19:45;44;38;
47081;PMS5003;33066;49.296;14.470;2023-02-11T07:22:10;52;39;
47081;PMS5003;33066;49.296;14.470;2023-02-11T07:24:36;55;40;
47081;PMS5003;33066;49.296;14.470;2023-02-11T07:27:02;63;49;
47081;PMS5003;33066;49.296;14.470;2023-02-11T07:29:27;87;72;
47081;PMS5003;33066;49.296;14.470;2023-02-11T07:31:53;54;39;
47081;PMS5003;33066;49.296;14.470;2023-02-11T07:34:18;40;31;
47081;PMS5003;33066;49.296;14.470;2023-02-11T07:36:43;34;31;
47081;PMS5003;33066;49.296;14.470;2023-02-11T07:39:09;37;34;
47081;PMS5003;33066;49.296;14.470;2023-02-11T07:41:34;46;32;
47081;PMS5003;33066;49.296;14.470;2023-02-11T07:44:00;34;27;
47081;PMS5003;33066;49.296;14.470;2023-02-11T07:46:26;40;32;
47081;PMS5003;33066;49.296;14.470;2023-02-11T07:48:51;47;37;
47081;PMS5003;33066;49.296;14.470;2023-02-11T07:51:17;30;27;
47081;PMS5003;33066;49.296;14.470;2023-02-11T07:53:42;40;35;
47081;PMS5003;33066;49.296;14.470;2023-02-11T07:56:07;27;25;
47081;PMS5003;33066;49.296;14.470;2023-02-11T07:58:33;48;37;
47081;PMS5003;33066;49.296;14.470;2023-02-11T08:01:00;46;44;
47081;PMS5003;33066;49.296;14.470;2023-02-11T08:03:24;51;41;
47081;PMS5003;33066;49.296;14.470;2023-02-11T08:05:49;63;54;
47081;PMS5003;33066;49.296;14.470;2023-02-11T08:08:15;48;35;
47081;PMS5003;33066;49.296;14.470;2023-02-11T08:10:40;51;42;
47081;PMS5003;33066;49.296;14.470;2023-02-11T08:13:06;46;40;
47081;PMS5003;33066;49.296;14.470;2023-02-11T08:15:31;50;31;
47081;PMS5003;33066;49.296;14.470;2023-02-11T08:17:57;49;36;
47081;PMS5003;33066;49.296;14.470;2023-02-11T08:20:23;62;52;
47081;PMS5003;33066;49.296;14.470;2023-02-11T08:22:48;36;35;
47081;PMS5003;33066;49.296;14.470;2023-02-11T08:25:14;51;44;
47081;PMS5003;33066;49.296;14.470;2023-02-11T08:27:40;47;40;
47081;PMS5003;33066;49.296;14.470;2023-02-11T08:30:05;52;42;
47081;PMS5003;33066;49.296;14.470;2023-02-11T08:32:30;54;43;
47081;PMS5003;33066;49.296;14.470;2023-02-11T08:34:56;37;33;
47081;PMS5003;33066;49.296;14.470;2023-02-11T08:37:21;43;30;
47081;PMS5003;33066;49.296;14.470;2023-02-11T08:39:47;39;34;
47081;PMS5003;33066;49.296;14.470;2023-02-11T08:42:12;39;32;
47081;PMS5003;33066;49.296;14.470;2023-02-11T08:44:38;31;29;
47081;PMS5003;33066;49.296;14.470;2023-02-11T08:47:03;42;36;
47081;PMS5003;33066;49.296;14.470;2023-02-11T08:49:28;47;40;
47081;PMS5003;33066;49.296;14.470;2023-02-11T08:51:54;51;46;
47081;PMS5003;33066;49.296;14.470;2023-02-11T08:54:19;61;51;
47081;PMS5003;33066;49.296;14.470;2023-02-11T08:56:45;46;41;
47081;PMS5003;33066;49.296;14.470;2023-02-11T08:59:11;55;47;
47081;PMS5003;33066;49.296;14.470;2023-02-11T09:01:36;58;47;
47081;PMS5003;33066;49.296;14.470;2023-02-11T09:04:01;45;36;
47081;PMS5003;33066;49.296;14.470;2023-02-11T09:06:27;45;37;
47081;PMS5003;33066;49.296;14.470;2023-02-11T09:08:54;49;34;
47081;PMS5003;33066;49.296;14.470;2023-02-11T09:11:19;37;34;
47081;PMS5003;33066;49.296;14.470;2023-02-11T09:13:43;48;41;
47081;PMS5003;33066;49.296;14.470;2023-02-11T09:16:14;41;36;
47081;PMS5003;33066;49.296;14.470;2023-02-11T09:18:34;34;29;
47081;PMS5003;33066;49.296;14.470;2023-02-11T09:21:01;48;42;
47081;PMS5003;33066;49.296;14.470;2023-02-11T09:23:24;52;43;
47081;PMS5003;33066;49.296;14.470;2023-02-11T09:25:50;58;41;
47081;PMS5003;33066;49.296;14.470;2023-02-11T09:28:15;53;42;
47081;PMS5003;33066;49.296;14.470;2023-02-11T09:30:40;51;42;
47081;PMS5003;33066;49.296;14.470;2023-02-11T09:33:05;56;43;
47081;PMS5003;33066;49.296;14.470;2023-02-11T09:35:31;62;47;
47081;PMS5003;33066;49.296;14.470;2023-02-11T09:37:56;62;56;
47081;PMS5003;33066;49.296;14.470;2023-02-11T09:40:21;102;87;
47081;PMS5003;33066;49.296;14.470;2023-02-11T09:42:47;64;52;
47081;PMS5003;33066;49.296;14.470;2023-02-11T09:45:14;101;96;
47081;PMS5003;33066;49.296;14.470;2023-02-11T09:47:38;60;52;
47081;PMS5003;33066;49.296;14.470;2023-02-11T09:50:04;47;36;
47081;PMS5003;33066;49.296;14.470;2023-02-11T09:52:31;48;38;
47081;PMS5003;33066;49.296;14.470;2023-02-11T09:54:55;58;51;
47081;PMS5003;33066;49.296;14.470;2023-02-11T09:57:20;40;36;
47081;PMS5003;33066;49.296;14.470;2023-02-11T09:59:46;42;33;
47081;PMS5003;33066;49.296;14.470;2023-02-11T10:02:12;45;35;
47081;PMS5003;33066;49.296;14.470;2023-02-11T10:04:43;29;26;
47081;PMS5003;33066;49.296;14.470;2023-02-11T10:07:05;60;52;
47081;PMS5003;33066;49.296;14.470;2023-02-11T10:09:32;45;41;
47081;PMS5003;33066;49.296;14.470;2023-02-11T10:11:57;55;51;
47081;PMS5003;33066;49.296;14.470;2023-02-11T10:14:24;853;530;
47081;PMS5003;33066;49.296;14.470;2023-02-11T10:16:50;39;36;
47081;PMS5003;33066;49.296;14.470;2023-02-11T10:19:15;67;57;
47081;PMS5003;33066;49.296;14.470;2023-02-11T10:21:38;87;79;
47081;PMS5003;33066;49.296;14.470;2023-02-11T10:24:03;91;87;
47081;PMS5003;33066;49.296;14.470;2023-02-11T10:26:29;93;90;
47081;PMS5003;33066;49.296;14.470;2023-02-11T10:28:53;99;95;
47081;PMS5003;33066;49.296;14.470;2023-02-11T10:31:20;101;98;
47081;PMS5003;33066;49.296;14.470;2023-02-11T10:33:45;107;102;
47081;PMS5003;33066;49.296;14.470;2023-02-11T10:36:10;105;101;
47081;PMS5003;33066;49.296;14.470;2023-02-11T10:38:36;104;96;
47081;PMS5003;33066;49.296;14.470;2023-02-11T10:41:02;110;106;
47081;PMS5003;33066;49.296;14.470;2023-02-11T10:43:27;116;113;
47081;PMS5003;33066;49.296;14.470;2023-02-11T10:45:53;130;123;
47081;PMS5003;33066;49.296;14.470;2023-02-11T10:50:43;141;138;
47081;PMS5003;33066;49.296;14.470;2023-02-11T10:53:11;137;133;
47081;PMS5003;33066;49.296;14.470;2023-02-11T10:55:34;137;133;
47081;PMS5003;33066;49.296;14.470;2023-02-11T10:57:59;94;88;
47081;PMS5003;33066;49.296;14.470;2023-02-11T11:00:29;18;17;
47081;PMS5003;33066;49.296;14.470;2023-02-11T11:02:51;21;13;
47081;PMS5003;33066;49.296;14.470;2023-02-11T11:05:16;33;32;
47081;PMS5003;33066;49.296;14.470;2023-02-11T11:07:40;28;22;
47081;PMS5003;33066;49.296;14.470;2023-02-11T11:10:06;23;21;
47081;PMS5003;33066;49.296;14.470;2023-02-11T11:12:33;32;23;
47081;PMS5003;33066;49.296;14.470;2023-02-11T11:14:58;22;20;
47081;PMS5003;33066;49.296;14.470;2023-02-11T11:17:23;19;17;
47081;PMS5003;33066;49.296;14.470;2023-02-11T11:19:48;28;21;
47081;PMS5003;33066;49.296;14.470;2023-02-11T11:22:18;27;23;
47081;PMS5003;33066;49.296;14.470;2023-02-11T11:24:42;33;24;
47081;PMS5003;33066;49.296;14.470;2023-02-11T11:27:05;23;19;
47081;PMS5003;33066;49.296;14.470;2023-02-11T11:29:32;23;23;
47081;PMS5003;33066;49.296;14.470;2023-02-11T11:31:57;27;23;
47081;PMS5003;33066;49.296;14.470;2023-02-11T11:34:22;32;26;
47081;PMS5003;33066;49.296;14.470;2023-02-11T11:36:46;28;23;
47081;PMS5003;33066;49.296;14.470;2023-02-11T11:39:16;25;23;
47081;PMS5003;33066;49.296;14.470;2023-02-11T11:41:36;29;27;
47081;PMS5003;33066;49.296;14.470;2023-02-11T11:44:03;22;22;
47081;PMS5003;33066;49.296;14.470;2023-02-11T11:46:28;37;29;
47081;PMS5003;33066;49.296;14.470;2023-02-11T11:48:53;30;24;
47081;PMS5003;33066;49.296;14.470;2023-02-11T11:51:18;22;21;
47081;PMS5003;33066;49.296;14.470;2023-02-11T11:53:44;49;37;
47081;PMS5003;33066;49.296;14.470;2023-02-11T11:56:10;36;30;
47081;PMS5003;33066;49.296;14.470;2023-02-11T11:58:34;31;30;
47081;PMS5003;33066;49.296;14.470;2023-02-11T12:01:02;34;25;
47081;PMS5003;33066;49.296;14.470;2023-02-11T12:03:38;42;29;
47081;PMS5003;33066;49.296;14.470;2023-02-11T12:05:53;43;33;
47081;PMS5003;33066;49.296;14.470;2023-02-11T12:08:18;37;30;
47081;PMS5003;33066;49.296;14.470;2023-02-11T12:10:46;57;46;
47081;PMS5003;33066;49.296;14.470;2023-02-11T12:13:11;34;27;
47081;PMS5003;33066;49.296;14.470;2023-02-11T12:15:34;31;28;
47081;PMS5003;33066;49.296;14.470;2023-02-11T12:18:02;40;28;
47081;PMS5003;33066;49.296;14.470;2023-02-11T12:20:27;29;22;
47081;PMS5003;33066;49.296;14.470;2023-02-11T12:22:53;36;35;
47081;PMS5003;33066;49.296;14.470;2023-02-11T12:25:20;41;34;
47081;PMS5003;33066;49.296;14.470;2023-02-11T12:27:43;33;28;
47081;PMS5003;33066;49.296;14.470;2023-02-11T12:30:08;34;30;
47081;PMS5003;33066;49.296;14.470;2023-02-11T12:32:32;28;28;
47081;PMS5003;33066;49.296;14.470;2023-02-11T12:35:06;40;32;
47081;PMS5003;33066;49.296;14.470;2023-02-11T12:37:25;22;21;
47081;PMS5003;33066;49.296;14.470;2023-02-11T12:39:49;28;22;
47081;PMS5003;33066;49.296;14.470;2023-02-11T12:42:16;23;22;
47081;PMS5003;33066;49.296;14.470;2023-02-11T12:44:40;34;28;
47081;PMS5003;33066;49.296;14.470;2023-02-11T12:47:07;39;29;
47081;PMS5003;33066;49.296;14.470;2023-02-11T12:49:33;28;26;
47081;PMS5003;33066;49.296;14.470;2023-02-11T12:51:58;39;33;
47081;PMS5003;33066;49.296;14.470;2023-02-11T12:54:22;30;26;
47081;PMS5003;33066;49.296;14.470;2023-02-11T12:56:47;34;30;
47081;PMS5003;33066;49.296;14.470;2023-02-11T12:59:12;29;22;
47081;PMS5003;33066;49.296;14.470;2023-02-11T13:01:38;26;26;
47081;PMS5003;33066;49.296;14.470;2023-02-11T13:04:04;43;28;
47081;PMS5003;33066;49.296;14.470;2023-02-11T13:06:30;72;55;
47081;PMS5003;33066;49.296;14.470;2023-02-11T13:08:54;24;22;
47081;PMS5003;33066;49.296;14.470;2023-02-11T13:11:21;41;28;
47081;PMS5003;33066;49.296;14.470;2023-02-11T13:13:48;33;29;
47081;PMS5003;33066;49.296;14.470;2023-02-11T13:16:13;40;32;
47081;PMS5003;33066;49.296;14.470;2023-02-11T13:18:40;32;28;
47081;PMS5003;33066;49.296;14.470;2023-02-11T13:21:07;39;34;
47081;PMS5003;33066;49.296;14.470;2023-02-11T13:23:28;41;30;
47081;PMS5003;33066;49.296;14.470;2023-02-11T13:25:53;36;32;
47081;PMS5003;33066;49.296;14.470;2023-02-11T13:28:21;28;27;
47081;PMS5003;33066;49.296;14.470;2023-02-11T13:30:43;48;40;
47081;PMS5003;33066;49.296;14.470;2023-02-11T13:33:17;37;33;
47081;PMS5003;33066;49.296;14.470;2023-02-11T13:35:34;36;29;
47081;PMS5003;33066;49.296;14.470;2023-02-11T13:37:59;28;27;
47081;PMS5003;33066;49.296;14.470;2023-02-11T13:40:25;37;28;
47081;PMS5003;33066;49.296;14.470;2023-02-11T13:42:50;33;31;
47081;PMS5003;33066;49.296;14.470;2023-02-11T13:45:16;24;20;
47081;PMS5003;33066;49.296;14.470;2023-02-11T13:47:41;27;25;
47081;PMS5003;33066;49.296;14.470;2023-02-11T13:50:06;20;17;
47081;PMS5003;33066;49.296;14.470;2023-02-11T13:52:32;36;21;
47081;PMS5003;33066;49.296;14.470;2023-02-11T13:54:58;42;35;
47081;PMS5003;33066;49.296;14.470;2023-02-11T13:57:26;39;35;
47081;PMS5003;33066;49.296;14.470;2023-02-11T13:59:48;31;28;
47081;PMS5003;33066;49.296;14.470;2023-02-11T14:02:21;32;28;
47081;PMS5003;33066;49.296;14.470;2023-02-11T14:09:33;37;30;
47081;PMS5003;33066;49.296;14.470;2023-02-11T14:14:21;49;43;
47081;PMS5003;33066;49.296;14.470;2023-02-11T14:19:11;32;24;
47081;PMS5003;33066;49.296;14.470;2023-02-11T14:21:37;40;39;
47081;PMS5003;33066;49.296;14.470;2023-02-11T14:26:30;29;26;
47081;PMS5003;33066;49.296;14.470;2023-02-11T14:28:57;38;25;
47081;PMS5003;33066;49.296;14.470;2023-02-11T14:31:20;39;29;
47081;PMS5003;33066;49.296;14.470;2023-02-11T14:33:47;33;25;
47081;PMS5003;33066;49.296;14.470;2023-02-11T14:36:14;25;19;
47081;PMS5003;33066;49.296;14.470;2023-02-11T14:38:39;26;24;
47081;PMS5003;33066;49.296;14.470;2023-02-11T14:41:04;32;29;
47081;PMS5003;33066;49.296;14.470;2023-02-11T14:43:28;30;24;
47081;PMS5003;33066;49.296;14.470;2023-02-11T14:45:53;26;20;
47081;PMS5003;33066;49.296;14.470;2023-02-11T14:48:19;21;20;
47081;PMS5003;33066;49.296;14.470;2023-02-11T14:50:44;33;32;
47081;PMS5003;33066;49.296;14.470;2023-02-11T14:53:09;20;19;
47081;PMS5003;33066;49.296;14.470;2023-02-11T14:55:35;43;39;
47081;PMS5003;33066;49.296;14.470;2023-02-11T14:58:06;34;30;
47081;PMS5003;33066;49.296;14.470;2023-02-11T15:00:25;32;31;
47081;PMS5003;33066;49.296;14.470;2023-02-11T15:02:51;27;22;
47081;PMS5003;33066;49.296;14.470;2023-02-11T15:05:18;42;37;
47081;PMS5003;33066;49.296;14.470;2023-02-11T15:07:43;32;24;
47081;PMS5003;33066;49.296;14.470;2023-02-11T15:12:32;90;66;
47081;PMS5003;33066;49.296;14.470;2023-02-11T15:14:58;82;58;
47081;PMS5003;33066;49.296;14.470;2023-02-11T15:17:25;39;31;
47081;PMS5003;33066;49.296;14.470;2023-02-11T15:19:49;58;50;
47081;PMS5003;33066;49.296;14.470;2023-02-11T15:22:15;41;36;
47081;PMS5003;33066;49.296;14.470;2023-02-11T15:24:40;141;100;
47081;PMS5003;33066;49.296;14.470;2023-02-11T15:27:09;44;32;
47081;PMS5003;33066;49.296;14.470;2023-02-11T15:29:34;30;24;
47081;PMS5003;33066;49.296;14.470;2023-02-11T15:32:03;36;32;
47081;PMS5003;33066;49.296;14.470;2023-02-11T15:34:20;125;100;
47081;PMS5003;33066;49.296;14.470;2023-02-11T15:36:46;39;30;
47081;PMS5003;33066;49.296;14.470;2023-02-11T15:39:14;33;29;
47081;PMS5003;33066;49.296;14.470;2023-02-11T15:41:36;44;37;
47081;PMS5003;33066;49.296;14.470;2023-02-11T15:44:02;37;33;
47081;PMS5003;33066;49.296;14.470;2023-02-11T15:46:31;42;31;
47081;PMS5003;33066;49.296;14.470;2023-02-11T15:48:53;28;22;
47081;PMS5003;33066;49.296;14.470;2023-02-11T15:51:19;35;29;
47081;PMS5003;33066;49.296;14.470;2023-02-11T15:53:46;40;29;
47081;PMS5003;33066;49.296;14.470;2023-02-11T15:56:11;33;33;
47081;PMS5003;33066;49.296;14.470;2023-02-11T15:58:36;41;36;
47081;PMS5003;33066;49.296;14.470;2023-02-11T16:01:01;48;33;
47081;PMS5003;33066;49.296;14.470;2023-02-11T16:03:26;41;36;
47081;PMS5003;33066;49.296;14.470;2023-02-11T16:05:51;32;24;
47081;PMS5003;33066;49.296;14.470;2023-02-11T16:08:19;48;37;
47081;PMS5003;33066;49.296;14.470;2023-02-11T16:10:51;35;34;
47081;PMS5003;33066;49.296;14.470;2023-02-11T16:13:17;53;43;
47081;PMS5003;33066;49.296;14.470;2023-02-11T16:15:42;34;31;